Time;durP1;ratioP1;P1;durP2;ratioP2;P2;SDS_P1;SDS_P2;PMS_P1;PMS_P2;Temp;Humidity;BMP_temperature;BMP_pressure;BME280_temperature;BME280_humidity;BME280_pressure;Samples;Min_cycle;Max_cycle;Signal;HPM_P1;HPM_P2
2023/07/23 00:00:23;;;;;;;6.53;5.90;;;11.90;99.90;;;;;;5009939;28;20022;-77
2023/07/23 00:02:49;;;;;;;6.68;5.63;;;11.90;99.90;;;;;;5010561;28;20033;-77
2023/07/23 00:05:15;;;;;;;6.78;6.07;;;11.90;99.90;;;;;;5008555;28;20382;-81
2023/07/23 00:07:40;;;;;;;7.47;6.47;;;11.80;99.90;;;;;;5010834;28;20379;-80
2023/07/23 00:10:09;;;;;;;6.68;6.05;;;11.80;99.90;;;;;;5010836;28;20112;-77
2023/07/23 00:12:35;;;;;;;8.80;6.10;;;11.80;99.90;;;;;;5010504;28;20118;-77
2023/07/23 00:15:00;;;;;;;6.47;5.88;;;11.80;99.90;;;;;;5011196;28;20507;-77
2023/07/23 00:17:26;;;;;;;7.28;6.57;;;11.70;99.90;;;;;;5006406;28;20540;-77
2023/07/23 00:19:52;;;;;;;6.18;5.60;;;11.70;99.90;;;;;;5008319;28;20041;-77
2023/07/23 00:22:18;;;;;;;7.68;6.05;;;11.60;99.90;;;;;;5003099;28;20487;-80
2023/07/23 00:24:45;;;;;;;6.25;5.65;;;11.60;99.90;;;;;;5009494;28;20025;-77
2023/07/23 00:27:12;;;;;;;8.45;6.50;;;11.60;99.90;;;;;;5010801;28;20014;-81
2023/07/23 00:29:38;;;;;;;6.38;5.75;;;11.50;99.90;;;;;;5009623;28;20387;-81
2023/07/23 00:32:04;;;;;;;7.85;5.45;;;11.50;99.90;;;;;;5006364;28;20022;-81
2023/07/23 00:34:29;;;;;;;6.07;5.47;;;11.40;99.90;;;;;;5001188;28;20034;-80
2023/07/23 00:36:55;;;;;;;7.63;5.60;;;11.40;99.90;;;;;;5009794;28;20064;-77
2023/07/23 00:39:21;;;;;;;7.30;5.55;;;11.40;99.90;;;;;;5002835;28;20070;-80
2023/07/23 00:41:46;;;;;;;6.45;5.68;;;11.40;99.90;;;;;;5010894;28;20049;-80
2023/07/23 00:44:12;;;;;;;5.95;5.43;;;11.30;99.90;;;;;;5008155;28;20479;-81
2023/07/23 00:46:37;;;;;;;6.95;6.22;;;11.30;99.90;;;;;;5002033;28;20555;-77
2023/07/23 00:49:03;;;;;;;8.38;6.30;;;11.20;99.90;;;;;;5010463;28;20050;-81
2023/07/23 00:51:29;;;;;;;7.35;6.65;;;11.20;99.90;;;;;;5009183;28;20030;-78
2023/07/23 00:53:55;;;;;;;8.57;6.32;;;11.30;99.90;;;;;;4998431;28;20512;-81
2023/07/23 00:56:20;;;;;;;6.15;5.65;;;11.30;99.90;;;;;;5000728;28;20029;-77
2023/07/23 00:58:47;;;;;;;7.28;6.25;;;11.20;99.90;;;;;;4996657;28;20030;-81
2023/07/23 01:01:13;;;;;;;6.80;6.10;;;11.30;99.90;;;;;;5007512;28;20714;-77
2023/07/23 01:03:39;;;;;;;8.88;7.13;;;11.20;99.90;;;;;;5004510;28;20025;-81
2023/07/23 01:06:06;;;;;;;7.80;7.05;;;11.20;99.90;;;;;;5009299;28;20025;-77
2023/07/23 01:08:33;;;;;;;6.13;5.53;;;11.20;99.90;;;;;;5010136;28;20034;-77
2023/07/23 01:11:01;;;;;;;6.03;5.38;;;11.10;99.90;;;;;;5000833;28;20025;-81
2023/07/23 01:13:27;;;;;;;5.10;4.60;;;11.10;99.90;;;;;;5008988;28;20078;-80
2023/07/23 01:15:53;;;;;;;5.35;4.57;;;10.90;99.90;;;;;;5008716;28;20018;-81
2023/07/23 01:18:19;;;;;;;5.55;5.05;;;10.90;99.90;;;;;;5007712;28;20022;-77
2023/07/23 01:20:45;;;;;;;5.55;5.00;;;10.90;99.90;;;;;;5010150;28;20083;-81
2023/07/23 01:23:10;;;;;;;8.23;5.95;;;10.90;99.90;;;;;;5007333;28;20101;-77
2023/07/23 01:25:36;;;;;;;5.43;4.90;;;10.90;99.90;;;;;;5007536;28;20108;-77
2023/07/23 01:28:02;;;;;;;6.95;5.75;;;10.90;99.90;;;;;;4997275;28;20160;-81
2023/07/23 01:30:28;;;;;;;7.75;6.25;;;10.90;99.90;;;;;;5009652;28;20121;-80
2023/07/23 01:32:54;;;;;;;8.32;6.70;;;10.90;99.90;;;;;;5009670;28;20510;-81
2023/07/23 01:35:20;;;;;;;8.63;6.35;;;10.90;99.90;;;;;;5006894;28;20167;-77
2023/07/23 01:37:47;;;;;;;9.93;6.85;;;11.00;99.90;;;;;;5007138;28;20029;-77
2023/07/23 01:40:13;;;;;;;7.70;6.55;;;11.00;99.90;;;;;;5008929;28;20387;-81
2023/07/23 01:42:39;;;;;;;9.95;6.90;;;10.90;99.90;;;;;;4997115;28;20031;-81
2023/07/23 01:45:05;;;;;;;6.13;5.25;;;10.90;99.90;;;;;;5007221;28;20075;-77
2023/07/23 01:47:31;;;;;;;5.80;5.10;;;10.90;99.90;;;;;;5009650;28;20022;-77
2023/07/23 01:49:56;;;;;;;4.93;4.53;;;10.70;99.90;;;;;;5006159;28;20106;-77
2023/07/23 01:52:22;;;;;;;5.82;5.13;;;10.70;99.90;;;;;;5009773;28;20030;-81
2023/07/23 01:54:48;;;;;;;5.88;5.35;;;10.70;99.90;;;;;;5001319;28;20421;-81
2023/07/23 01:57:14;;;;;;;5.10;4.72;;;10.70;99.90;;;;;;5009848;28;20030;-81
2023/07/23 01:59:39;;;;;;;7.47;5.22;;;10.70;99.90;;;;;;5008871;28;20026;-77
2023/07/23 02:02:09;;;;;;;6.93;5.43;;;10.60;99.90;;;;;;4999405;28;20029;-81
2023/07/23 02:04:35;;;;;;;6.30;5.22;;;10.70;99.90;;;;;;5008243;28;20018;-81
2023/07/23 02:07:00;;;;;;;4.28;3.97;;;10.60;99.90;;;;;;5007998;28;20029;-77
2023/07/23 02:09:26;;;;;;;4.78;4.38;;;10.50;99.90;;;;;;5009954;28;20026;-81
2023/07/23 02:11:51;;;;;;;4.65;4.05;;;10.50;99.90;;;;;;5010720;28;20024;-80
2023/07/23 02:14:17;;;;;;;5.43;4.93;;;10.50;99.90;;;;;;5011827;28;20045;-81
2023/07/23 02:16:42;;;;;;;7.68;5.15;;;10.50;99.90;;;;;;5012613;28;20106;-81
2023/07/23 02:19:08;;;;;;;7.97;5.75;;;10.50;99.90;;;;;;5012697;28;20050;-81
2023/07/23 02:21:34;;;;;;;5.18;4.78;;;10.50;99.90;;;;;;5006774;28;20019;-78
2023/07/23 02:23:59;;;;;;;6.22;5.50;;;10.50;99.90;;;;;;5006043;28;20360;-80
2023/07/23 02:26:25;;;;;;;5.55;5.05;;;10.40;99.90;;;;;;5004914;28;20038;-77
2023/07/23 02:28:50;;;;;;;10.07;7.22;;;10.40;99.90;;;;;;5005062;28;20498;-77
2023/07/23 02:31:16;;;;;;;12.40;7.82;;;10.50;99.90;;;;;;5010399;28;20471;-81
2023/07/23 02:33:42;;;;;;;10.93;7.88;;;10.50;99.90;;;;;;5008339;28;20061;-77
2023/07/23 02:36:08;;;;;;;14.05;8.23;;;10.60;99.90;;;;;;5013014;28;20471;-81
2023/07/23 02:38:34;;;;;;;8.25;6.30;;;10.60;99.90;;;;;;5008312;28;20034;-80
2023/07/23 02:41:00;;;;;;;10.05;7.07;;;10.50;99.90;;;;;;5009751;28;20195;-77
2023/07/23 02:43:25;;;;;;;9.82;7.28;;;10.50;99.90;;;;;;5012200;28;20026;-81
2023/07/23 02:45:51;;;;;;;8.02;5.50;;;10.50;99.90;;;;;;5012579;28;20026;-77
2023/07/23 02:48:16;;;;;;;7.90;6.75;;;10.40;99.90;;;;;;5010994;28;20079;-81
2023/07/23 02:50:42;;;;;;;9.60;5.55;;;10.40;99.90;;;;;;5007419;28;20557;-81
2023/07/23 02:53:08;;;;;;;6.13;5.57;;;10.40;99.90;;;;;;5004406;28;20029;-81
2023/07/23 02:55:34;;;;;;;7.15;5.30;;;10.30;99.90;;;;;;5006786;28;20432;-81
2023/07/23 02:58:03;;;;;;;6.63;5.63;;;10.30;99.90;;;;;;5010410;28;20022;-77
2023/07/23 03:00:30;;;;;;;9.43;6.10;;;10.30;99.90;;;;;;5003231;28;20026;-81
2023/07/23 03:02:55;;;;;;;10.43;6.78;;;10.30;99.90;;;;;;5005326;28;20479;-77
2023/07/23 03:05:24;;;;;;;10.30;8.27;;;10.40;99.90;;;;;;5012126;28;20021;-77
2023/07/23 03:07:51;;;;;;;12.38;7.10;;;10.40;99.90;;;;;;5007700;28;20018;-77
2023/07/23 03:10:17;;;;;;;8.73;6.63;;;10.40;99.90;;;;;;5028120;28;20481;-77
2023/07/23 03:12:42;;;;;;;9.48;6.82;;;10.40;99.90;;;;;;5010851;28;20022;-77
2023/07/23 03:15:08;;;;;;;7.88;6.90;;;10.40;99.90;;;;;;5011868;28;20134;-81
2023/07/23 03:17:34;;;;;;;10.88;7.30;;;10.40;99.90;;;;;;5012083;28;20037;-77
2023/07/23 03:20:00;;;;;;;15.95;7.95;;;10.40;99.90;;;;;;5011119;28;20026;-77
2023/07/23 03:22:25;;;;;;;10.43;8.15;;;10.40;99.90;;;;;;5010545;28;20026;-77
2023/07/23 03:24:51;;;;;;;10.75;8.55;;;10.30;99.90;;;;;;5010206;28;20105;-77
2023/07/23 03:27:17;;;;;;;13.65;8.18;;;10.40;99.90;;;;;;5009009;28;20021;-77
2023/07/23 03:29:42;;;;;;;16.98;8.45;;;10.50;99.90;;;;;;5011680;28;20033;-80
2023/07/23 03:32:08;;;;;;;13.25;8.57;;;10.50;99.90;;;;;;5012059;28;20033;-77
2023/07/23 03:34:33;;;;;;;12.68;8.85;;;10.50;99.90;;;;;;5009982;28;20048;-78
2023/07/23 03:36:59;;;;;;;11.27;7.85;;;10.50;99.90;;;;;;5010604;28;20030;-78
2023/07/23 03:39:25;;;;;;;10.80;7.85;;;10.60;99.90;;;;;;4995223;28;20507;-77
2023/07/23 03:41:51;;;;;;;11.05;7.88;;;10.70;99.90;;;;;;5011659;28;20075;-81
2023/07/23 03:44:16;;;;;;;8.30;7.22;;;10.90;99.90;;;;;;5009670;28;20108;-77
2023/07/23 03:46:44;;;;;;;12.73;8.68;;;11.00;99.90;;;;;;5011855;28;20026;-81
2023/07/23 03:49:10;;;;;;;9.23;7.38;;;11.00;99.90;;;;;;5010865;28;20433;-81
2023/07/23 03:51:36;;;;;;;7.30;5.70;;;11.10;99.90;;;;;;5009911;28;20022;-77
2023/07/23 03:54:02;;;;;;;5.60;5.15;;;11.20;99.90;;;;;;5011531;28;20041;-81
2023/07/23 03:56:27;;;;;;;5.15;4.65;;;11.30;99.90;;;;;;5010117;28;20026;-77
2023/07/23 03:58:53;;;;;;;4.65;4.25;;;11.40;99.90;;;;;;4999906;28;20029;-81
2023/07/23 04:01:18;;;;;;;5.45;4.95;;;11.50;99.90;;;;;;5005527;28;20054;-77
2023/07/23 04:03:45;;;;;;;7.43;4.82;;;11.60;99.90;;;;;;5007747;28;20022;-77
2023/07/23 04:06:10;;;;;;;6.18;5.40;;;11.80;99.90;;;;;;5009717;28;20056;-81
2023/07/23 04:08:36;;;;;;;11.57;5.55;;;12.00;99.90;;;;;;5009754;28;20046;-81
2023/07/23 04:11:01;;;;;;;8.27;6.50;;;12.20;99.90;;;;;;5010768;28;20468;-77
2023/07/23 04:13:27;;;;;;;7.30;6.60;;;12.40;99.90;;;;;;5010766;28;20026;-77
2023/07/23 04:15:52;;;;;;;7.93;6.30;;;12.60;99.90;;;;;;5006944;28;20360;-77
2023/07/23 04:18:18;;;;;;;7.38;5.28;;;12.70;99.90;;;;;;5008174;28;20022;-77
2023/07/23 04:20:44;;;;;;;8.20;5.50;;;12.90;99.90;;;;;;5010403;28;20052;-81
2023/07/23 04:23:10;;;;;;;9.63;5.47;;;13.20;99.90;;;;;;5010593;28;20045;-77
2023/07/23 04:25:35;;;;;;;7.40;4.35;;;13.20;99.90;;;;;;5009635;28;20030;-78
2023/07/23 04:28:01;;;;;;;7.05;4.90;;;13.40;99.90;;;;;;5011114;28;20022;-77
2023/07/23 04:30:30;;;;;;;4.90;4.45;;;13.50;99.90;;;;;;4995945;28;20479;-77
2023/07/23 04:32:56;;;;;;;7.25;5.13;;;13.60;99.90;;;;;;5010563;28;20029;-78
2023/07/23 04:35:21;;;;;;;7.53;5.53;;;13.60;99.90;;;;;;5007370;28;20068;-77
2023/07/23 04:37:47;;;;;;;8.48;5.35;;;13.80;99.90;;;;;;5003507;28;20487;-81
2023/07/23 04:40:12;;;;;;;5.82;5.25;;;14.00;99.90;;;;;;5006842;28;20014;-80
2023/07/23 04:42:38;;;;;;;5.63;5.07;;;14.10;99.90;;;;;;5008738;28;20014;-77
2023/07/23 04:45:04;;;;;;;8.10;5.63;;;14.20;99.90;;;;;;5010411;28;20468;-77
2023/07/23 04:47:30;;;;;;;6.45;5.75;;;14.40;99.90;;;;;;5010325;28;20028;-81
2023/07/23 04:49:57;;;;;;;7.65;6.32;;;14.50;99.90;;;;;;5009472;28;20403;-77
2023/07/23 04:52:23;;;;;;;7.07;5.72;;;14.70;99.90;;;;;;5005250;28;20022;-81
2023/07/23 04:54:50;;;;;;;8.57;5.82;;;14.90;99.90;;;;;;5008648;28;20038;-77
2023/07/23 04:57:16;;;;;;;8.00;6.30;;;15.00;99.90;;;;;;5010618;28;20022;-77
2023/07/23 04:59:41;;;;;;;8.90;6.78;;;15.20;99.90;;;;;;5006800;28;20091;-77
2023/07/23 05:02:07;;;;;;;9.30;6.80;;;15.40;99.90;;;;;;5006061;28;20050;-77
2023/07/23 05:04:34;;;;;;;7.40;6.70;;;15.60;99.90;;;;;;5009144;28;20026;-81
2023/07/23 05:06:59;;;;;;;7.50;6.45;;;15.90;99.90;;;;;;4997071;28;20037;-77
2023/07/23 05:09:25;;;;;;;9.60;6.60;;;16.20;99.90;;;;;;5003598;28;20397;-77
2023/07/23 05:11:50;;;;;;;9.20;6.40;;;16.40;99.90;;;;;;5008641;28;20109;-77
2023/07/23 05:14:16;;;;;;;9.80;6.43;;;16.50;99.90;;;;;;5007461;28;20082;-81
2023/07/23 05:16:42;;;;;;;6.20;5.60;;;16.60;99.90;;;;;;5008651;28;20051;-81
2023/07/23 05:19:07;;;;;;;7.32;5.85;;;16.80;99.90;;;;;;5007903;28;20030;-81
2023/07/23 05:21:36;;;;;;;6.55;5.75;;;16.80;99.90;;;;;;5009985;28;20022;-81
2023/07/23 05:24:02;;;;;;;6.45;5.85;;;16.90;99.90;;;;;;5008678;28;20495;-81
2023/07/23 05:26:28;;;;;;;6.78;5.82;;;17.00;99.90;;;;;;5010005;28;20046;-81
2023/07/23 05:28:53;;;;;;;7.30;5.90;;;17.10;98.80;;;;;;5008210;28;20088;-81
2023/07/23 05:31:19;;;;;;;6.82;5.82;;;17.20;95.40;;;;;;5006687;28;20033;-81
2023/07/23 05:33:44;;;;;;;7.63;5.43;;;17.30;91.50;;;;;;4999146;28;20064;-78
2023/07/23 05:36:10;;;;;;;9.02;5.88;;;17.30;89.80;;;;;;5008381;28;20025;-78
2023/07/23 05:38:35;;;;;;;7.88;5.82;;;17.40;88.70;;;;;;5005996;28;20070;-78
2023/07/23 05:41:01;;;;;;;6.32;5.65;;;17.50;88.30;;;;;;5001003;28;20136;-81
2023/07/23 05:43:27;;;;;;;6.20;5.60;;;17.50;89.20;;;;;;5001850;28;20022;-78
2023/07/23 05:45:53;;;;;;;9.18;6.03;;;17.60;88.10;;;;;;5010147;28;20087;-77
2023/07/23 05:48:18;;;;;;;7.97;6.15;;;17.70;87.20;;;;;;5005664;28;20018;-81
2023/07/23 05:50:44;;;;;;;7.82;6.35;;;17.70;86.80;;;;;;5005001;28;20042;-81
2023/07/23 05:53:10;;;;;;;5.70;5.20;;;17.70;87.00;;;;;;4999234;28;20062;-81
2023/07/23 05:55:36;;;;;;;8.30;5.47;;;17.60;89.50;;;;;;5003324;28;20030;-75
2023/07/23 05:58:02;;;;;;;5.82;5.25;;;17.60;90.10;;;;;;5002972;28;20026;-75
2023/07/23 06:00:27;;;;;;;5.50;5.00;;;17.60;91.60;;;;;;4998227;28;20027;-76
2023/07/23 06:02:53;;;;;;;7.43;5.55;;;17.50;93.40;;;;;;5006849;28;20456;-76
2023/07/23 06:05:18;;;;;;;10.68;6.22;;;17.50;94.10;;;;;;5008885;28;20058;-76
2023/07/23 06:07:44;;;;;;;5.82;5.22;;;17.50;96.00;;;;;;5005301;28;20467;-76
2023/07/23 06:10:10;;;;;;;6.03;5.30;;;17.50;96.40;;;;;;5044026;28;20084;-76
2023/07/23 06:12:35;;;;;;;6.85;5.65;;;17.50;95.60;;;;;;5020638;28;20022;-76
2023/07/23 06:15:02;;;;;;;6.85;5.55;;;17.50;94.50;;;;;;5003471;28;20045;-77
2023/07/23 06:17:28;;;;;;;6.80;6.05;;;17.60;94.80;;;;;;5038628;28;20018;-81
2023/07/23 06:19:54;;;;;;;6.88;5.22;;;17.60;94.30;;;;;;5008889;28;20028;-80
2023/07/23 06:22:19;;;;;;;5.65;5.15;;;17.70;93.90;;;;;;5003099;28;20417;-80
2023/07/23 06:24:45;;;;;;;8.80;5.80;;;17.70;92.50;;;;;;5003402;28;20030;-79
2023/07/23 06:27:11;;;;;;;6.10;5.50;;;17.70;92.60;;;;;;4997144;28;20026;-80
2023/07/23 06:29:36;;;;;;;6.40;5.68;;;17.70;92.10;;;;;;5001186;28;20117;-79
2023/07/23 06:32:02;;;;;;;7.80;5.97;;;17.80;96.10;;;;;;5002422;28;20087;-79
2023/07/23 06:34:27;;;;;;;6.38;5.88;;;17.80;98.50;;;;;;5002702;28;20042;-80
2023/07/23 06:36:53;;;;;;;6.78;6.07;;;17.80;97.20;;;;;;4997925;28;20120;-80
2023/07/23 06:39:20;;;;;;;6.15;5.55;;;18.00;96.40;;;;;;5003521;28;20037;-76
2023/07/23 06:41:45;;;;;;;6.05;5.28;;;18.10;94.00;;;;;;5000615;28;20532;-80
2023/07/23 06:44:11;;;;;;;5.90;5.40;;;18.20;93.60;;;;;;5004795;28;20034;-80
2023/07/23 06:46:36;;;;;;;5.40;4.90;;;18.30;91.90;;;;;;5001510;28;20071;-80
2023/07/23 06:49:02;;;;;;;7.13;5.68;;;18.30;88.40;;;;;;5006462;28;20042;-76
2023/07/23 06:51:27;;;;;;;13.77;5.72;;;18.40;87.80;;;;;;5000972;28;20054;-76
2023/07/23 06:53:53;;;;;;;6.25;5.32;;;18.50;87.70;;;;;;5008959;28;20116;-76
2023/07/23 06:56:19;;;;;;;7.22;5.22;;;18.60;87.10;;;;;;5011388;28;20022;-80
2023/07/23 06:58:46;;;;;;;7.53;5.97;;;18.70;86.90;;;;;;5007972;28;20543;-80
2023/07/23 07:01:11;;;;;;;6.38;5.72;;;18.80;84.40;;;;;;5008050;28;20065;-80
2023/07/23 07:03:37;;;;;;;5.68;5.13;;;19.00;84.60;;;;;;5012022;28;20065;-77
2023/07/23 07:06:04;;;;;;;6.40;5.30;;;19.10;84.50;;;;;;5009417;28;20034;-76
2023/07/23 07:08:30;;;;;;;5.38;4.88;;;19.20;83.00;;;;;;5009359;28;20033;-76
2023/07/23 07:11:00;;;;;;;9.38;5.00;;;19.30;82.50;;;;;;5009803;28;20038;-77
2023/07/23 07:13:28;;;;;;;6.72;4.75;;;19.20;83.80;;;;;;4995506;28;20023;-77
2023/07/23 07:15:53;;;;;;;5.82;5.32;;;19.30;85.00;;;;;;5003820;28;20082;-77
2023/07/23 07:18:19;;;;;;;6.03;5.20;;;19.40;83.80;;;;;;5010747;28;20026;-78
2023/07/23 07:20:52;;;;;;;6.13;5.45;;;19.50;84.90;;;;;;5011677;28;20069;-78
2023/07/23 07:23:17;;;;;;;;;;;19.50;83.70;;;;;;5002531;28;20037;-77
2023/07/23 07:25:43;;;;;;;6.03;5.40;;;19.50;82.00;;;;;;5010769;28;19988;-78
2023/07/23 07:28:08;;;;;;;5.85;5.03;;;19.60;82.70;;;;;;5022904;28;20118;-78
2023/07/23 07:30:38;;;;;;;6.50;4.85;;;19.60;79.50;;;;;;5004194;28;20033;-78
2023/07/23 07:33:04;;;;;;;6.90;5.15;;;19.70;79.70;;;;;;5000576;28;20030;-78
2023/07/23 07:35:29;;;;;;;5.35;4.88;;;19.80;80.30;;;;;;4995235;28;20038;-78
2023/07/23 07:37:55;;;;;;;5.95;5.35;;;20.00;80.30;;;;;;5007526;28;20071;-78
2023/07/23 07:40:21;;;;;;;6.43;4.72;;;20.20;79.00;;;;;;5004199;28;20054;-80
2023/07/23 07:42:46;;;;;;;5.18;4.55;;;20.50;79.10;;;;;;5002864;28;20038;-81
2023/07/23 07:45:12;;;;;;;5.10;4.60;;;20.80;78.50;;;;;;5043065;28;20026;-81
2023/07/23 07:47:37;;;;;;;6.45;5.30;;;21.10;76.20;;;;;;5007156;28;20038;-81
2023/07/23 07:50:05;;;;;;;6.30;5.53;;;21.30;75.30;;;;;;5001662;28;20062;-81
2023/07/23 07:52:32;;;;;;;6.82;5.38;;;21.40;73.50;;;;;;5010252;28;20073;-81
2023/07/23 07:54:59;;;;;;;4.75;4.22;;;21.50;72.50;;;;;;5009818;28;20499;-81
2023/07/23 07:57:26;;;;;;;4.90;4.40;;;21.90;72.80;;;;;;5008876;28;20061;-81
2023/07/23 07:59:52;;;;;;;4.70;4.10;;;22.20;68.40;;;;;;5009385;28;20476;-78
2023/07/23 08:02:18;;;;;;;3.95;3.60;;;22.50;67.40;;;;;;4998837;28;20061;-81
2023/07/23 08:04:44;;;;;;;3.88;3.42;;;22.80;65.00;;;;;;5010246;28;20038;-78
2023/07/23 08:07:10;;;;;;;4.55;3.42;;;23.00;61.90;;;;;;4998534;28;20027;-78
2023/07/23 08:09:37;;;;;;;4.05;3.40;;;23.20;61.70;;;;;;5006899;28;20030;-78
2023/07/23 08:12:06;;;;;;;3.53;3.20;;;23.20;61.60;;;;;;5026543;28;20022;-81
2023/07/23 08:14:34;;;;;;;4.00;3.28;;;23.10;60.30;;;;;;5010962;28;20037;-78
2023/07/23 08:17:00;;;;;;;3.88;3.05;;;23.10;60.80;;;;;;5007425;28;20686;-78
2023/07/23 08:19:26;;;;;;;4.45;3.25;;;23.00;61.40;;;;;;5007999;28;20022;-79
2023/07/23 08:21:52;;;;;;;3.85;3.38;;;23.00;62.20;;;;;;5010519;28;20101;-79
2023/07/23 08:24:18;;;;;;;4.00;3.10;;;22.90;60.10;;;;;;5008323;28;20060;-80
2023/07/23 08:26:47;;;;;;;4.03;2.70;;;23.00;59.20;;;;;;5009623;28;20098;-81
2023/07/23 08:29:13;;;;;;;3.70;2.83;;;22.90;59.60;;;;;;5009355;28;20383;-81
2023/07/23 08:31:39;;;;;;;3.50;3.17;;;22.90;60.10;;;;;;5010594;28;20553;-81
2023/07/23 08:34:05;;;;;;;3.47;2.65;;;23.00;60.40;;;;;;5006742;28;20117;-81
2023/07/23 08:36:31;;;;;;;3.80;3.08;;;23.30;59.50;;;;;;5007767;28;20471;-81
2023/07/23 08:38:57;;;;;;;4.55;3.17;;;23.40;59.90;;;;;;5010550;28;20114;-81
2023/07/23 08:41:35;;;;;;;6.05;3.40;;;23.50;59.10;;;;;;5008949;28;20018;-79
2023/07/23 08:44:10;;;;;;;3.35;2.75;;;23.70;56.00;;;;;;4999127;28;20420;-79
2023/07/23 08:46:45;;;;;;;4.70;3.65;;;23.80;56.70;;;;;;5005732;28;20030;-81
2023/07/23 08:49:11;;;;;;;3.42;3.13;;;24.00;55.40;;;;;;5007629;28;20503;-82
2023/07/23 08:51:47;;;;;;;4.75;3.28;;;24.00;54.00;;;;;;5000399;28;20032;-81
2023/07/23 08:54:16;;;;;;;4.97;3.35;;;24.20;54.40;;;;;;5000049;28;20160;-80
2023/07/23 08:56:43;;;;;;;4.47;3.05;;;24.20;53.80;;;;;;4998400;28;20030;-81
2023/07/23 08:59:09;;;;;;;4.05;3.53;;;24.40;54.60;;;;;;5009162;28;20047;-79
2023/07/23 09:01:37;;;;;;;3.72;2.97;;;24.40;53.60;;;;;;5010184;28;20022;-79
2023/07/23 09:04:08;;;;;;;4.93;3.45;;;24.30;53.50;;;;;;5007297;28;20069;-79
2023/07/23 09:06:34;;;;;;;3.13;2.80;;;24.30;54.30;;;;;;5005894;28;20015;-81
2023/07/23 09:09:04;;;;;;;3.78;3.15;;;24.50;54.50;;;;;;5001392;28;20026;-80
2023/07/23 09:11:30;;;;;;;4.72;2.97;;;24.60;54.90;;;;;;5010381;28;20022;-80
2023/07/23 09:14:00;;;;;;;4.60;3.63;;;24.80;54.40;;;;;;5006166;28;20476;-81
2023/07/23 09:16:26;;;;;;;5.68;3.30;;;24.80;54.40;;;;;;5008544;28;20029;-79
2023/07/23 09:18:51;;;;;;;4.38;3.38;;;25.00;54.50;;;;;;5008547;28;20018;-79
2023/07/23 09:21:25;;;;;;;10.65;3.60;;;25.00;55.00;;;;;;5010116;28;20372;-79
2023/07/23 09:23:55;;;;;;;5.93;3.85;;;25.00;55.70;;;;;;5009976;28;20067;-79
2023/07/23 09:26:27;;;;;;;7.32;3.90;;;25.20;55.10;;;;;;5008130;28;20033;-81
2023/07/23 09:28:56;;;;;;;4.07;3.10;;;25.30;54.70;;;;;;5008506;28;20509;-81
2023/07/23 09:31:31;;;;;;;5.30;4.03;;;25.50;55.20;;;;;;5008054;28;20018;-80
2023/07/23 09:34:01;;;;;;;4.20;3.22;;;25.60;55.20;;;;;;5008265;28;20132;-80
2023/07/23 09:36:28;;;;;;;7.28;4.03;;;25.60;54.20;;;;;;5005303;28;20037;-79
2023/07/23 09:38:55;;;;;;;3.80;3.40;;;25.70;54.40;;;;;;4997862;28;20479;-79
2023/07/23 09:41:21;;;;;;;3.90;3.60;;;25.70;53.70;;;;;;4996770;28;20475;-79
2023/07/23 09:43:47;;;;;;;4.10;3.63;;;25.80;54.10;;;;;;5003067;28;20047;-79
2023/07/23 09:46:13;;;;;;;4.85;3.60;;;25.80;53.70;;;;;;4998569;28;20037;-79
2023/07/23 09:48:48;;;;;;;3.80;3.10;;;25.90;53.10;;;;;;5004820;28;20423;-79
2023/07/23 09:51:14;;;;;;;4.35;3.13;;;26.00;53.70;;;;;;5001906;28;20029;-81
2023/07/23 09:53:46;;;;;;;3.67;3.38;;;26.00;51.50;;;;;;5007943;28;20022;-81
2023/07/23 09:56:14;;;;;;;8.45;3.78;;;26.00;51.70;;;;;;5008650;28;20187;-79
2023/07/23 09:58:43;;;;;;;5.28;3.30;;;26.10;53.50;;;;;;5006761;28;20491;-79
2023/07/23 10:01:09;;;;;;;4.07;3.20;;;26.00;52.90;;;;;;5007302;28;20025;-79
2023/07/23 10:03:36;;;;;;;4.25;3.28;;;25.90;51.60;;;;;;5007393;28;20106;-79
2023/07/23 10:06:03;;;;;;;4.57;3.30;;;25.90;51.70;;;;;;5005395;28;20021;-79
2023/07/23 10:08:30;;;;;;;5.43;3.92;;;26.10;52.30;;;;;;5003486;28;20113;-79
2023/07/23 10:10:56;;;;;;;6.13;3.50;;;26.40;51.90;;;;;;5006503;28;20041;-80
2023/07/23 10:13:22;;;;;;;6.25;5.72;;;26.30;52.20;;;;;;5009331;28;20022;-79
2023/07/23 10:15:49;;;;;;;6.15;3.80;;;26.40;52.40;;;;;;5005471;28;20038;-79
2023/07/23 10:18:16;;;;;;;4.53;3.42;;;26.10;51.80;;;;;;5000740;28;20026;-80
2023/07/23 10:20:44;;;;;;;2.90;2.58;;;25.70;49.90;;;;;;5002083;28;20603;-79
2023/07/23 10:23:10;;;;;;;5.22;2.90;;;25.60;49.60;;;;;;4998361;28;20494;-79
2023/07/23 10:25:36;;;;;;;3.53;2.38;;;25.90;49.70;;;;;;5000283;28;20071;-79
2023/07/23 10:28:07;;;;;;;3.88;2.85;;;26.20;49.60;;;;;;5004150;28;20387;-79
2023/07/23 10:30:39;;;;;;;5.75;2.78;;;26.50;49.30;;;;;;5009471;28;20026;-79
2023/07/23 10:33:10;;;;;;;3.33;2.60;;;26.20;47.20;;;;;;5000179;28;20026;-79
2023/07/23 10:35:52;;;;;;;4.55;2.83;;;26.20;46.70;;;;;;5002758;28;20042;-79
2023/07/23 10:38:21;;;;;;;4.10;3.13;;;26.30;47.20;;;;;;5004001;28;20483;-78
2023/07/23 10:40:47;;;;;;;3.67;2.50;;;26.20;47.50;;;;;;5005887;28;20029;-78
2023/07/23 10:43:14;;;;;;;4.47;3.05;;;26.50;48.40;;;;;;5001709;28;20050;-78
2023/07/23 10:46:00;;;;;;;3.13;2.83;;;26.40;47.40;;;;;;5000682;28;20079;-79
2023/07/23 10:48:59;;;;;;;4.20;2.95;;;26.40;47.40;;;;;;4999564;28;20056;-79
2023/07/23 10:51:25;;;;;;;3.22;2.53;;;26.20;47.30;;;;;;4997992;28;20042;-79
2023/07/23 10:54:06;;;;;;;3.63;2.65;;;26.00;47.80;;;;;;5002052;28;20052;-78
2023/07/23 10:56:32;;;;;;;7.55;3.15;;;25.90;48.00;;;;;;5000607;28;20022;-79
2023/07/23 10:59:10;;;;;;;5.63;3.08;;;26.20;49.20;;;;;;5002085;28;20024;-80
2023/07/23 11:01:40;;;;;;;3.08;2.72;;;26.20;48.80;;;;;;5004858;28;20026;-80
2023/07/23 11:04:11;;;;;;;4.88;3.13;;;26.40;47.50;;;;;;5005722;28;20161;-79
2023/07/23 11:06:41;;;;;;;4.97;3.03;;;26.80;47.60;;;;;;5008407;28;20034;-79
2023/07/23 11:09:13;;;;;;;4.53;3.47;;;27.10;48.30;;;;;;5006118;28;20014;-79
2023/07/23 11:11:41;;;;;;;5.18;3.20;;;27.10;46.60;;;;;;5001688;28;20551;-78
2023/07/23 11:14:18;;;;;;;6.00;2.80;;;27.20;45.00;;;;;;5005116;28;20045;-79
2023/07/23 11:16:46;;;;;;;3.67;3.25;;;27.50;44.90;;;;;;5006464;28;20066;-77
2023/07/23 11:19:12;;;;;;;5.15;2.67;;;27.70;44.70;;;;;;4996037;28;20517;-79
2023/07/23 11:21:58;;;;;;;5.47;3.22;;;27.70;44.40;;;;;;5003065;28;20045;-78
2023/07/23 11:24:29;;;;;;;3.33;2.60;;;27.80;44.90;;;;;;4996249;28;20418;-78
2023/07/23 11:27:03;;;;;;;4.47;3.17;;;27.40;44.90;;;;;;4998127;28;20215;-79
2023/07/23 11:29:29;;;;;;;3.53;2.92;;;27.00;45.30;;;;;;5021704;28;20437;-78
2023/07/23 11:31:56;;;;;;;4.07;3.40;;;26.90;45.40;;;;;;5000973;28;20023;-78
2023/07/23 11:34:25;;;;;;;4.20;2.80;;;26.70;45.00;;;;;;5004320;28;20037;-80
2023/07/23 11:36:52;;;;;;;4.63;2.95;;;26.50;45.70;;;;;;5004814;28;20368;-79
2023/07/23 11:39:19;;;;;;;3.88;2.90;;;26.50;46.00;;;;;;5000388;28;20536;-80
2023/07/23 11:41:45;;;;;;;3.95;2.88;;;26.70;46.40;;;;;;5006695;28;20026;-78
2023/07/23 11:44:11;;;;;;;3.85;3.35;;;26.80;46.00;;;;;;5006930;28;20025;-79
2023/07/23 11:46:39;;;;;;;2.90;2.42;;;27.20;47.10;;;;;;5002935;28;20033;-78
2023/07/23 11:49:06;;;;;;;4.35;2.80;;;27.40;45.30;;;;;;4992042;28;20167;-79
2023/07/23 11:51:33;;;;;;;4.45;2.78;;;27.70;45.30;;;;;;4998882;28;20065;-79
2023/07/23 11:54:00;;;;;;;3.88;2.97;;;27.60;43.30;;;;;;4995875;28;20034;-79
2023/07/23 11:56:26;;;;;;;4.50;3.50;;;27.60;43.40;;;;;;4995605;28;20029;-79
2023/07/23 11:58:52;;;;;;;6.55;2.83;;;27.80;44.60;;;;;;5008866;28;20399;-78
2023/07/23 12:01:18;;;;;;;3.45;3.15;;;27.70;43.00;;;;;;5005462;28;20029;-80
2023/07/23 12:03:45;;;;;;;2.50;2.30;;;27.80;43.40;;;;;;5010340;28;20484;-80
2023/07/23 12:06:15;;;;;;;3.80;3.20;;;27.90;43.80;;;;;;4999603;28;20521;-77
2023/07/23 12:08:46;;;;;;;6.70;3.13;;;28.10;45.00;;;;;;5000779;28;20147;-78
2023/07/23 12:11:15;;;;;;;4.13;2.55;;;28.20;44.90;;;;;;4996086;28;20428;-77
2023/07/23 12:13:42;;;;;;;3.17;2.78;;;28.20;44.10;;;;;;5003175;28;20658;-78
2023/07/23 12:16:37;;;;;;;4.20;2.55;;;28.30;44.20;;;;;;5000543;28;20053;-78
2023/07/23 12:19:08;;;;;;;3.50;3.20;;;28.50;44.10;;;;;;5006109;28;20033;-77
2023/07/23 12:21:41;;;;;;;4.40;2.67;;;28.60;44.20;;;;;;5009107;28;20029;-78
2023/07/23 12:24:24;;;;;;;3.33;2.47;;;28.50;42.00;;;;;;5009112;28;20022;-78
2023/07/23 12:26:51;;;;;;;8.50;3.03;;;28.50;42.10;;;;;;4998814;28;20114;-78
2023/07/23 12:29:18;;;;;;;4.28;3.42;;;28.40;41.70;;;;;;4992127;28;20055;-78
2023/07/23 12:31:48;;;;;;;3.88;3.08;;;28.40;42.20;;;;;;5004798;28;20060;-79
2023/07/23 12:34:16;;;;;;;4.05;2.90;;;28.60;43.40;;;;;;5002701;28;20026;-79
2023/07/23 12:36:42;;;;;;;7.55;3.20;;;28.70;42.60;;;;;;5007202;28;20046;-78
2023/07/23 12:39:09;;;;;;;3.58;3.03;;;28.70;41.50;;;;;;5000932;28;20068;-78
2023/07/23 12:41:36;;;;;;;3.33;3.03;;;28.70;41.40;;;;;;5001425;28;20026;-79
2023/07/23 12:44:03;;;;;;;4.82;3.20;;;28.90;41.70;;;;;;5003196;28;20061;-78